createdAt,value
2018-06-13T00:00:00.598Z,12.55
2018-06-13T00:01:00.508Z,12.43
2018-06-13T00:02:00.417Z,12.46
2018-06-13T00:03:00.360Z,12.43
2018-06-13T00:04:00.234Z,12.44
2018-06-13T00:05:00.239Z,12.41
2018-06-13T00:06:00.053Z,12.49
2018-06-13T00:07:00.008Z,12.41
2018-06-13T00:07:59.903Z,12.46
2018-06-13T00:08:59.780Z,12.40
2018-06-13T00:09:59.687Z,12.44
2018-06-13T00:10:59.595Z,12.43
2018-06-13T00:11:59.600Z,12.40
2018-06-13T00:12:59.441Z,12.51
2018-06-13T00:13:59.322Z,12.44
2018-06-13T00:14:59.234Z,12.46
2018-06-13T00:15:59.141Z,12.41
2018-06-13T00:16:59.047Z,12.51
2018-06-13T00:17:58.987Z,12.38
2018-06-13T00:18:58.955Z,12.44
2018-06-13T00:19:58.773Z,12.49
2018-06-13T00:20:58.686Z,12.44
2018-06-13T00:21:58.590Z,12.31
2018-06-13T00:22:58.534Z,12.46
2018-06-13T00:23:58.407Z,12.40
2018-06-13T00:24:58.318Z,12.48
2018-06-13T00:25:58.317Z,12.46
2018-06-13T00:26:58.135Z,12.44
2018-06-13T00:27:58.075Z,12.40
2018-06-13T00:28:57.954Z,12.48
2018-06-13T00:29:57.862Z,12.54
2018-06-13T00:30:57.772Z,12.46
2018-06-13T00:31:57.680Z,12.49
2018-06-13T00:32:57.710Z,12.51
2018-06-13T00:33:57.499Z,12.38
2018-06-13T00:34:57.457Z,12.48
2018-06-13T00:35:57.318Z,12.54
2018-06-13T00:36:57.281Z,12.46
2018-06-13T00:37:57.164Z,12.48
2018-06-13T00:38:57.042Z,12.46
2018-06-13T00:39:57.054Z,12.40
2018-06-13T00:40:56.864Z,12.49
2018-06-13T00:41:56.769Z,12.44
2018-06-13T00:42:56.713Z,12.49
2018-06-13T00:43:56.583Z,12.38
2018-06-13T00:44:56.492Z,12.38
2018-06-13T00:45:56.402Z,12.37
2018-06-13T00:46:56.404Z,12.51
2018-06-13T00:47:56.247Z,12.40
2018-06-13T00:48:56.128Z,12.46
2018-06-13T00:49:56.035Z,12.33
2018-06-13T00:50:55.947Z,12.46
2018-06-13T00:51:55.851Z,12.33
2018-06-13T00:52:55.793Z,12.48
2018-06-13T00:53:55.764Z,12.44
2018-06-13T00:54:55.580Z,12.51
2018-06-13T00:55:55.487Z,12.49
2018-06-13T00:56:55.395Z,12.49
2018-06-13T00:57:55.336Z,12.36
2018-06-13T00:58:55.213Z,12.38
2018-06-13T00:59:55.120Z,12.46
2018-06-13T01:00:55.141Z,12.40
2018-06-13T01:01:54.943Z,12.40
2018-06-13T01:02:54.878Z,12.41
2018-06-13T01:03:54.755Z,12.41
2018-06-13T01:04:54.664Z,12.40
2018-06-13T01:05:54.575Z,12.44
2018-06-13T01:06:54.486Z,12.40
2018-06-13T01:07:54.420Z,12.30
2018-06-13T01:08:54.297Z,12.37
2018-06-13T01:09:54.208Z,12.37
2018-06-13T01:10:54.121Z,12.37
2018-06-13T01:11:54.027Z,12.40
2018-06-13T01:12:53.962Z,12.43
2018-06-13T01:13:53.842Z,12.44
2018-06-13T01:14:53.750Z,12.46
2018-06-13T01:15:53.662Z,12.40
2018-06-13T01:16:53.569Z,12.46
2018-06-13T01:17:53.508Z,12.38
2018-06-13T01:18:53.390Z,12.33
2018-06-13T01:19:53.291Z,12.33
2018-06-13T01:20:53.201Z,12.44
2018-06-13T01:21:53.111Z,12.36
2018-06-13T01:22:53.053Z,12.36
2018-06-13T01:23:52.930Z,12.34
2018-06-13T01:24:52.838Z,12.31
2018-06-13T01:25:52.745Z,12.36
2018-06-13T01:26:52.655Z,12.38
2018-06-13T01:27:52.600Z,12.41
2018-06-13T01:28:52.471Z,12.36
2018-06-13T01:29:52.382Z,12.31
2018-06-13T01:30:52.296Z,12.40
2018-06-13T01:31:52.195Z,12.38
2018-06-13T01:32:52.110Z,12.33
2018-06-13T01:33:52.047Z,12.33
2018-06-13T01:34:51.924Z,12.33
2018-06-13T01:35:51.828Z,12.37
2018-06-13T01:36:51.740Z,12.37
2018-06-13T01:37:51.658Z,12.36
2018-06-13T01:38:51.587Z,12.40
2018-06-13T01:39:51.464Z,12.38
2018-06-13T01:40:51.375Z,12.36
2018-06-13T01:41:51.282Z,12.37
2018-06-13T01:42:51.198Z,12.37
2018-06-13T01:43:51.134Z,12.40
2018-06-13T01:44:51.009Z,12.38
2018-06-13T01:45:50.919Z,12.36
2018-06-13T01:46:50.825Z,12.37
2018-06-13T01:47:50.741Z,12.43
2018-06-13T01:48:50.674Z,12.40
2018-06-13T01:49:50.552Z,12.40
2018-06-13T01:50:50.463Z,12.41
2018-06-13T01:51:50.372Z,12.33
2018-06-13T01:52:50.277Z,12.43
2018-06-13T01:53:50.221Z,12.22
2018-06-13T01:54:50.097Z,12.38
2018-06-13T01:55:50.006Z,12.30
2018-06-13T01:56:49.913Z,12.38
2018-06-13T01:57:49.822Z,12.29
2018-06-13T01:58:49.763Z,12.40
2018-06-13T01:59:49.640Z,12.23
2018-06-13T02:00:49.547Z,12.23
2018-06-13T02:01:49.455Z,12.23
2018-06-13T02:02:49.363Z,12.26
2018-06-13T02:03:49.306Z,12.29
2018-06-13T02:04:49.182Z,12.29
2018-06-13T02:05:49.093Z,12.23
2018-06-13T02:06:49.000Z,12.23
2018-06-13T02:07:48.905Z,12.30
2018-06-13T02:08:48.850Z,12.30
2018-06-13T02:09:48.727Z,12.34
2018-06-13T02:10:48.634Z,12.33
2018-06-13T02:11:48.542Z,12.26
2018-06-13T02:12:48.460Z,12.31
2018-06-13T02:13:48.392Z,12.26
2018-06-13T02:14:48.268Z,12.25
2018-06-13T02:15:48.176Z,12.29
2018-06-13T02:16:48.086Z,12.33
2018-06-13T02:17:47.993Z,12.36
2018-06-13T02:18:47.935Z,12.37
2018-06-13T02:19:47.811Z,12.36
2018-06-13T02:20:47.721Z,12.36
2018-06-13T02:21:47.692Z,12.26
2018-06-13T02:22:47.539Z,12.25
2018-06-13T02:23:47.553Z,12.36
2018-06-13T02:24:47.355Z,12.30
2018-06-13T02:25:47.265Z,12.25
2018-06-13T02:26:47.172Z,12.29
2018-06-13T02:27:47.081Z,12.23
2018-06-13T02:28:47.019Z,12.25
2018-06-13T02:29:46.902Z,12.34
2018-06-13T02:30:46.809Z,12.25
2018-06-13T02:31:46.716Z,12.23
2018-06-13T02:32:46.624Z,12.30
2018-06-13T02:33:46.565Z,12.36
2018-06-13T02:34:46.443Z,12.26
2018-06-13T02:35:46.347Z,12.30
2018-06-13T02:36:46.255Z,12.33
2018-06-13T02:37:46.254Z,12.23
2018-06-13T02:38:46.106Z,12.23
2018-06-13T02:39:45.981Z,12.30
2018-06-13T02:40:45.893Z,12.29
2018-06-13T02:41:45.803Z,12.29
2018-06-13T02:42:45.720Z,12.33
2018-06-13T02:43:45.648Z,12.25
2018-06-13T02:44:45.627Z,12.29
2018-06-13T02:45:45.437Z,12.25
2018-06-13T02:46:45.343Z,12.34
2018-06-13T02:47:45.255Z,12.25
2018-06-13T02:48:45.201Z,12.26
2018-06-13T02:49:45.073Z,12.21
2018-06-13T02:50:44.980Z,12.29
2018-06-13T02:51:44.977Z,12.22
2018-06-13T02:52:44.794Z,12.11
2018-06-13T02:53:44.733Z,12.16
2018-06-13T02:54:44.616Z,12.22
2018-06-13T02:55:44.523Z,12.05
2018-06-13T02:56:44.433Z,12.22
2018-06-13T02:57:44.339Z,12.18
2018-06-13T02:58:44.340Z,12.08
2018-06-13T02:59:44.191Z,12.15
2018-06-13T03:00:44.063Z,12.21
2018-06-13T03:01:43.975Z,12.11
2018-06-13T03:02:43.885Z,12.19
2018-06-13T03:03:43.823Z,12.15
2018-06-13T03:04:43.699Z,12.15
2018-06-13T03:05:43.704Z,12.15
2018-06-13T03:06:43.526Z,12.15
2018-06-13T03:07:43.424Z,12.16
2018-06-13T03:08:43.335Z,12.13
2018-06-13T03:09:43.275Z,12.11
2018-06-13T03:10:43.155Z,12.15
2018-06-13T03:11:43.055Z,12.11
2018-06-13T03:12:43.060Z,12.13
2018-06-13T03:13:42.880Z,12.08
2018-06-13T03:14:42.817Z,12.11
2018-06-13T03:15:42.699Z,12.16
2018-06-13T03:16:42.600Z,12.11
2018-06-13T03:17:42.512Z,12.26
2018-06-13T03:18:42.421Z,12.25
2018-06-13T03:19:42.355Z,12.15
2018-06-13T03:20:42.237Z,12.13
2018-06-13T03:21:42.146Z,12.13
2018-06-13T03:22:42.052Z,12.29
2018-06-13T03:23:41.958Z,12.25
2018-06-13T03:24:41.910Z,12.16
2018-06-13T03:25:41.778Z,12.25
2018-06-13T03:26:41.688Z,12.25
2018-06-13T03:27:41.594Z,12.22
2018-06-13T03:28:41.503Z,12.22
2018-06-13T03:29:41.446Z,12.21
2018-06-13T03:30:41.321Z,12.12
2018-06-13T03:31:41.227Z,12.11
2018-06-13T03:32:41.137Z,12.11
2018-06-13T03:33:41.048Z,12.23
2018-06-13T03:34:40.989Z,12.11
2018-06-13T03:35:40.865Z,12.22
2018-06-13T03:36:40.772Z,12.16
2018-06-13T03:37:40.678Z,12.15
2018-06-13T03:38:40.589Z,12.13
2018-06-13T03:39:40.528Z,12.13
2018-06-13T03:40:40.407Z,12.16
2018-06-13T03:41:40.313Z,12.18
2018-06-13T03:42:40.225Z,12.15
2018-06-13T03:43:40.134Z,12.15
2018-06-13T03:44:40.073Z,12.18
2018-06-13T03:45:39.954Z,12.21
2018-06-13T03:46:39.858Z,12.15
2018-06-13T03:47:39.766Z,12.13
2018-06-13T03:48:39.672Z,12.15
2018-06-13T03:49:39.612Z,12.13
2018-06-13T03:50:39.493Z,12.13
2018-06-13T03:51:39.399Z,12.19
2018-06-13T03:52:39.308Z,12.15
2018-06-13T03:53:39.216Z,12.16
2018-06-13T03:54:39.160Z,12.16
2018-06-13T03:55:39.031Z,12.12
2018-06-13T03:56:38.944Z,12.23
2018-06-13T03:57:38.856Z,12.13
2018-06-13T03:58:38.761Z,12.05
2018-06-13T03:59:38.674Z,12.15
2018-06-13T04:00:38.607Z,12.12
2018-06-13T04:01:38.486Z,12.13
2018-06-13T04:02:38.393Z,12.13
2018-06-13T04:03:38.302Z,12.15
2018-06-13T04:04:38.215Z,12.15
2018-06-13T04:05:38.150Z,12.18
2018-06-13T04:06:38.046Z,12.16
2018-06-13T04:07:37.935Z,12.19
2018-06-13T04:08:37.848Z,12.15
2018-06-13T04:09:37.754Z,12.13
2018-06-13T04:10:37.695Z,12.13
2018-06-13T04:11:37.571Z,12.15
2018-06-13T04:12:37.477Z,12.19
2018-06-13T04:13:37.389Z,12.15
2018-06-13T04:14:37.298Z,12.21
2018-06-13T04:15:37.238Z,12.11
2018-06-13T04:16:37.125Z,12.12
2018-06-13T04:17:37.022Z,12.15
2018-06-13T04:18:36.929Z,12.13
2018-06-13T04:19:36.838Z,12.13
2018-06-13T04:20:36.776Z,12.13
2018-06-13T04:21:36.653Z,12.12
2018-06-13T04:22:36.567Z,12.13
2018-06-13T04:23:36.473Z,12.13
2018-06-13T04:24:36.380Z,12.18
2018-06-13T04:25:36.321Z,12.13
2018-06-13T04:26:36.197Z,12.15
2018-06-13T04:27:36.106Z,12.16
2018-06-13T04:28:36.014Z,12.13
2018-06-13T04:29:35.923Z,12.07
2018-06-13T04:30:35.863Z,12.07
2018-06-13T04:31:35.741Z,12.07
2018-06-13T04:32:35.677Z,12.04
2018-06-13T04:33:35.555Z,11.98
2018-06-13T04:34:35.464Z,11.98
2018-06-13T04:35:35.402Z,12.01
2018-06-13T04:36:35.283Z,12.03
2018-06-13T04:37:35.188Z,12.04
2018-06-13T04:38:35.100Z,12.01
2018-06-13T04:39:35.007Z,11.98
2018-06-13T04:40:34.946Z,12.00
2018-06-13T04:41:34.819Z,11.97
2018-06-13T04:42:34.731Z,11.97
2018-06-13T04:43:34.641Z,12.07
2018-06-13T04:44:34.547Z,11.97
2018-06-13T04:45:34.487Z,12.00
2018-06-13T04:46:34.366Z,11.98
2018-06-13T04:47:34.273Z,12.00
2018-06-13T04:48:34.178Z,11.93
2018-06-13T04:49:34.121Z,11.96
2018-06-13T04:50:34.028Z,11.96
2018-06-13T04:51:33.905Z,11.93
2018-06-13T04:52:33.813Z,11.94
2018-06-13T04:53:33.720Z,12.00
2018-06-13T04:54:33.633Z,11.97
2018-06-13T04:55:33.570Z,11.90
2018-06-13T04:56:33.449Z,11.97
2018-06-13T04:57:33.358Z,11.98
2018-06-13T04:58:33.274Z,11.94
2018-06-13T04:59:33.170Z,11.96
2018-06-13T05:00:33.083Z,12.00
2018-06-13T05:01:33.020Z,11.94
2018-06-13T05:02:32.897Z,12.01
2018-06-13T05:03:32.806Z,11.93
2018-06-13T05:04:32.713Z,12.00
2018-06-13T05:05:32.628Z,12.07
2018-06-13T05:06:32.558Z,12.04
2018-06-13T05:07:32.437Z,12.04
2018-06-13T05:08:32.346Z,12.05
2018-06-13T05:09:32.255Z,12.08
2018-06-13T05:10:32.164Z,12.07
2018-06-13T05:11:32.108Z,12.18
2018-06-13T05:12:31.980Z,12.13
2018-06-13T05:13:31.935Z,12.18
2018-06-13T05:14:31.795Z,12.15
2018-06-13T05:15:31.704Z,12.13
2018-06-13T05:16:31.645Z,12.15
2018-06-13T05:17:31.522Z,12.08
2018-06-13T05:18:31.432Z,12.07
2018-06-13T05:19:31.337Z,12.12
2018-06-13T05:20:31.247Z,12.15
2018-06-13T05:21:31.191Z,12.12
2018-06-13T05:22:31.065Z,12.03
2018-06-13T05:23:30.969Z,12.12
2018-06-13T05:24:30.878Z,12.07
2018-06-13T05:25:30.885Z,12.11
2018-06-13T05:26:30.730Z,12.07
2018-06-13T05:27:30.606Z,12.11
2018-06-13T05:28:30.514Z,12.08
2018-06-13T05:29:30.443Z,12.07
2018-06-13T05:30:30.333Z,12.11
2018-06-13T05:31:30.272Z,12.08
2018-06-13T05:32:30.237Z,12.16
2018-06-13T05:33:30.057Z,12.12
2018-06-13T05:34:29.972Z,12.08
2018-06-13T05:35:29.874Z,12.21
2018-06-13T05:36:29.815Z,12.23
2018-06-13T05:37:29.689Z,12.33
2018-06-13T05:38:29.599Z,12.38
2018-06-13T05:39:29.624Z,12.36
2018-06-13T05:40:29.414Z,12.31
2018-06-13T05:41:29.358Z,12.34
2018-06-13T05:42:29.232Z,12.23
2018-06-13T05:43:29.144Z,12.34
2018-06-13T05:44:29.050Z,12.29
2018-06-13T05:45:28.959Z,12.38
2018-06-13T05:46:28.990Z,12.26
2018-06-13T05:47:28.774Z,12.31
2018-06-13T05:48:28.683Z,12.30
2018-06-13T05:49:28.591Z,12.34
2018-06-13T05:50:28.499Z,12.29
2018-06-13T05:51:28.442Z,12.30
2018-06-13T05:52:28.317Z,12.30
2018-06-13T05:53:28.317Z,12.29
2018-06-13T05:54:28.134Z,12.40
2018-06-13T05:55:28.041Z,12.40
2018-06-13T05:56:27.986Z,12.37
2018-06-13T05:57:27.862Z,12.38
2018-06-13T05:58:27.773Z,12.40
2018-06-13T05:59:27.677Z,12.40
2018-06-13T06:00:27.695Z,12.38
2018-06-13T06:01:27.578Z,12.38
2018-06-13T06:02:27.404Z,12.36
2018-06-13T06:03:27.312Z,12.37
2018-06-13T06:04:27.220Z,12.37
2018-06-13T06:05:27.127Z,12.40
2018-06-13T06:06:27.071Z,12.41
2018-06-13T06:07:27.040Z,12.37
2018-06-13T06:08:26.855Z,12.40
2018-06-13T06:09:26.767Z,12.36
2018-06-13T06:10:26.740Z,12.30
2018-06-13T06:11:26.611Z,12.37
2018-06-13T06:12:26.489Z,12.36
2018-06-13T06:13:26.400Z,12.38
2018-06-13T06:14:26.403Z,12.36
2018-06-13T06:15:26.218Z,12.29
2018-06-13T06:16:26.154Z,12.29
2018-06-13T06:17:26.036Z,12.26
2018-06-13T06:18:25.946Z,12.25
2018-06-13T06:19:25.851Z,12.26
2018-06-13T06:20:25.760Z,12.23
2018-06-13T06:21:25.790Z,12.26
2018-06-13T06:22:25.579Z,12.25
2018-06-13T06:23:25.484Z,12.23
2018-06-13T06:24:25.397Z,12.30
2018-06-13T06:25:25.304Z,12.33
2018-06-13T06:26:25.244Z,12.37
2018-06-13T06:27:25.122Z,12.41
2018-06-13T06:28:25.127Z,12.38
2018-06-13T06:29:24.938Z,12.33
2018-06-13T06:30:24.851Z,12.29
2018-06-13T06:31:24.758Z,12.40
2018-06-13T06:32:24.701Z,12.37
2018-06-13T06:33:24.576Z,12.44
2018-06-13T06:34:24.480Z,12.34
2018-06-13T06:35:24.392Z,12.40
2018-06-13T06:36:24.303Z,12.38
2018-06-13T06:37:24.239Z,12.37
2018-06-13T06:38:24.118Z,12.58
2018-06-13T06:39:24.025Z,12.37
2018-06-13T06:40:23.934Z,12.48
2018-06-13T06:41:23.859Z,12.40
2018-06-13T06:42:23.797Z,12.46
2018-06-13T06:43:23.661Z,12.46
2018-06-13T06:44:23.571Z,12.49
2018-06-13T06:45:23.478Z,12.49
2018-06-13T06:46:23.389Z,12.56
2018-06-13T06:47:23.328Z,12.63
2018-06-13T06:48:23.300Z,12.62
2018-06-13T06:49:23.144Z,12.61
2018-06-13T06:50:23.021Z,12.77
2018-06-13T06:51:22.953Z,12.94
2018-06-13T06:52:22.871Z,12.80
2018-06-13T06:53:22.752Z,12.88
2018-06-13T06:54:22.659Z,12.91
2018-06-13T06:55:22.621Z,12.96
2018-06-13T06:56:22.481Z,12.98
2018-06-13T06:57:22.417Z,12.88
2018-06-13T06:58:22.298Z,12.94
2018-06-13T06:59:22.205Z,12.94
2018-06-13T07:00:22.135Z,12.91
2018-06-13T07:01:22.027Z,12.99
2018-06-13T07:02:21.960Z,13.13
2018-06-13T07:03:21.840Z,12.99
2018-06-13T07:04:21.750Z,13.01
2018-06-13T07:05:21.657Z,13.03
2018-06-13T07:06:21.574Z,12.98
2018-06-13T07:07:21.509Z,13.09
2018-06-13T07:08:21.384Z,13.03
2018-06-13T07:09:21.295Z,13.01
2018-06-13T07:10:21.206Z,12.94
2018-06-13T07:11:21.115Z,13.01
2018-06-13T07:12:21.052Z,12.94
2018-06-13T07:13:20.936Z,13.06
2018-06-13T07:14:20.845Z,13.04
2018-06-13T07:15:20.753Z,13.21
2018-06-13T07:16:20.661Z,13.31
2018-06-13T07:17:20.603Z,13.28
2018-06-13T07:18:20.492Z,13.29
2018-06-13T07:19:20.393Z,13.41
2018-06-13T07:20:20.300Z,13.38
2018-06-13T07:21:20.211Z,13.36
2018-06-13T07:22:20.150Z,13.38
2018-06-13T07:23:20.029Z,13.36
2018-06-13T07:24:19.937Z,13.35
2018-06-13T07:25:19.853Z,13.22
2018-06-13T07:26:19.759Z,13.21
2018-06-13T07:27:19.699Z,13.25
2018-06-13T07:28:19.577Z,13.16
2018-06-13T07:29:19.487Z,13.19
2018-06-13T07:30:19.395Z,13.12
2018-06-13T07:31:19.307Z,13.14
2018-06-13T07:32:19.248Z,13.14
2018-06-13T07:33:19.126Z,13.06
2018-06-13T07:34:19.039Z,12.98
2018-06-13T07:35:18.944Z,12.94
2018-06-13T07:36:18.856Z,12.99
2018-06-13T07:37:18.797Z,13.03
2018-06-13T07:38:18.675Z,12.98
2018-06-13T07:39:18.584Z,13.06
2018-06-13T07:40:18.493Z,13.01
2018-06-13T07:41:18.402Z,12.98
2018-06-13T07:42:18.348Z,12.98
2018-06-13T07:43:18.220Z,13.01
2018-06-13T07:44:18.134Z,13.01
2018-06-13T07:45:18.045Z,13.07
2018-06-13T07:46:17.952Z,12.98
2018-06-13T07:47:17.894Z,12.96
2018-06-13T07:48:17.773Z,12.89
2018-06-13T07:49:17.680Z,12.87
2018-06-13T07:50:17.593Z,12.80
2018-06-13T07:51:17.503Z,12.92
2018-06-13T07:52:17.445Z,12.91
2018-06-13T07:53:17.318Z,12.95
2018-06-13T07:54:17.233Z,12.91
2018-06-13T07:55:17.190Z,12.81
2018-06-13T07:56:17.079Z,12.80
2018-06-13T07:57:16.992Z,12.80
2018-06-13T07:58:16.871Z,12.85
2018-06-13T07:59:16.776Z,12.69
2018-06-13T08:00:16.686Z,12.81
2018-06-13T08:01:16.596Z,12.84
2018-06-13T08:02:16.516Z,12.80
2018-06-13T08:03:16.451Z,12.89
2018-06-13T08:04:16.325Z,12.88
2018-06-13T08:05:16.340Z,13.01
2018-06-13T08:06:16.144Z,13.09
2018-06-13T08:07:16.058Z,13.19
2018-06-13T08:08:16.004Z,13.19
2018-06-13T08:09:15.876Z,13.22
2018-06-13T08:10:15.782Z,13.22
2018-06-13T08:11:15.695Z,13.21
2018-06-13T08:12:15.693Z,13.13
2018-06-13T08:13:15.547Z,13.14
2018-06-13T08:14:15.424Z,13.13
2018-06-13T08:15:15.330Z,13.13
2018-06-13T08:16:15.241Z,13.07
2018-06-13T08:17:15.153Z,13.14
2018-06-13T08:18:15.096Z,13.16
2018-06-13T08:19:15.061Z,13.14
2018-06-13T08:20:14.882Z,13.12
2018-06-13T08:21:14.792Z,13.29
2018-06-13T08:22:14.702Z,13.41
2018-06-13T08:23:14.642Z,13.46
2018-06-13T08:24:14.519Z,13.66
2018-06-13T08:25:14.431Z,13.61
2018-06-13T08:26:14.449Z,13.72
2018-06-13T08:27:14.250Z,13.87
2018-06-13T08:28:14.192Z,13.99
2018-06-13T08:29:14.072Z,14.21
2018-06-13T08:30:13.983Z,14.42
2018-06-13T08:31:13.890Z,14.83
2018-06-13T08:32:13.798Z,15.03
2018-06-13T08:33:13.835Z,14.94
2018-06-13T08:34:13.620Z,15.11
2018-06-13T08:35:13.531Z,15.16
2018-06-13T08:36:13.441Z,14.95
2018-06-13T08:37:13.352Z,14.93
2018-06-13T08:38:13.296Z,14.66
2018-06-13T08:39:13.175Z,14.49
2018-06-13T08:40:13.174Z,14.39
2018-06-13T08:41:12.998Z,14.19
2018-06-13T08:42:12.905Z,14.13
2018-06-13T08:43:12.848Z,14.09
2018-06-13T08:44:12.726Z,13.99
2018-06-13T08:45:12.639Z,13.96
2018-06-13T08:46:12.548Z,13.86
2018-06-13T08:47:12.565Z,13.76
2018-06-13T08:48:12.404Z,13.79
2018-06-13T08:49:12.285Z,13.73
2018-06-13T08:50:12.195Z,13.65
2018-06-13T08:51:12.105Z,13.59
2018-06-13T08:52:12.014Z,13.53
2018-06-13T08:53:11.957Z,13.39
2018-06-13T08:54:11.943Z,13.22
2018-06-13T08:55:11.745Z,13.21
2018-06-13T08:56:11.656Z,13.06
2018-06-13T08:57:11.576Z,13.16
2018-06-13T08:58:11.509Z,13.13
2018-06-13T08:59:11.387Z,13.03
2018-06-13T09:00:11.304Z,13.01
2018-06-13T09:01:11.300Z,12.91
2018-06-13T09:02:11.119Z,12.89
2018-06-13T09:03:11.101Z,12.79
2018-06-13T09:04:10.939Z,12.79
2018-06-13T09:05:10.848Z,12.80
2018-06-13T09:06:10.761Z,12.76
2018-06-13T09:07:10.670Z,12.87
2018-06-13T09:08:10.611Z,12.81
2018-06-13T09:09:10.489Z,12.70
2018-06-13T09:10:10.398Z,12.67
2018-06-13T09:11:10.307Z,12.73
2018-06-13T09:12:10.218Z,12.67
2018-06-13T09:13:10.155Z,12.70
2018-06-13T09:14:10.038Z,12.59
2018-06-13T09:15:09.948Z,12.62
2018-06-13T09:16:09.951Z,12.66
2018-06-13T09:17:09.768Z,12.69
2018-06-13T09:18:09.707Z,12.63
2018-06-13T09:19:09.586Z,12.63
2018-06-13T09:20:09.496Z,12.59
2018-06-13T09:21:09.403Z,12.62
2018-06-13T09:22:09.310Z,12.66
2018-06-13T09:23:09.253Z,12.70
2018-06-13T09:24:09.132Z,12.70
2018-06-13T09:25:09.042Z,12.70
2018-06-13T09:26:08.952Z,12.84
2018-06-13T09:27:08.859Z,12.84
2018-06-13T09:28:08.802Z,12.85
2018-06-13T09:29:08.685Z,12.76
2018-06-13T09:30:08.691Z,12.92
2018-06-13T09:31:08.543Z,12.92
2018-06-13T09:32:08.408Z,12.89
2018-06-13T09:33:08.319Z,12.96
2018-06-13T09:34:08.259Z,12.91
2018-06-13T09:35:08.136Z,12.99
2018-06-13T09:36:08.165Z,13.14
2018-06-13T09:37:07.954Z,13.14
2018-06-13T09:38:07.870Z,13.24
2018-06-13T09:39:07.807Z,13.24
2018-06-13T09:40:07.681Z,13.10
2018-06-13T09:41:07.594Z,13.21
2018-06-13T09:42:07.503Z,13.28
2018-06-13T09:43:07.411Z,13.29
2018-06-13T09:44:07.353Z,13.28
2018-06-13T09:45:07.230Z,13.19
2018-06-13T09:46:12.012Z,13.13
2018-06-13T09:47:14.861Z,13.14
2018-06-13T09:48:06.962Z,13.01
2018-06-13T09:49:06.897Z,12.99
2018-06-13T09:50:06.796Z,12.98
2018-06-13T09:51:06.690Z,13.03
2018-06-13T09:52:06.596Z,12.94
2018-06-13T09:53:06.507Z,12.92
2018-06-13T09:54:06.448Z,12.89
2018-06-13T09:55:06.325Z,12.87
2018-06-13T09:56:06.237Z,12.95
2018-06-13T09:57:06.146Z,12.76
2018-06-13T09:58:06.055Z,12.67
2018-06-13T09:59:05.998Z,12.70
2018-06-13T10:00:05.893Z,12.81
2018-06-13T10:01:05.784Z,12.80
2018-06-13T10:02:05.734Z,12.80
2018-06-13T10:03:05.605Z,12.80
2018-06-13T10:04:05.541Z,12.88
2018-06-13T10:05:05.421Z,12.94
2018-06-13T10:06:05.335Z,13.06
2018-06-13T10:07:05.242Z,13.10
2018-06-13T10:08:05.153Z,13.14
2018-06-13T10:09:05.092Z,13.32
2018-06-13T10:10:04.975Z,13.53
2018-06-13T10:11:04.879Z,13.65
2018-06-13T10:12:04.793Z,13.80
2018-06-13T10:13:04.711Z,13.93
2018-06-13T10:14:04.640Z,14.02
2018-06-13T10:15:04.517Z,14.05
2018-06-13T10:16:04.431Z,14.26
2018-06-13T10:17:04.386Z,14.19
2018-06-13T10:18:04.251Z,14.34
2018-06-13T10:19:04.190Z,14.45
2018-06-13T10:20:04.067Z,14.60
2018-06-13T10:21:03.977Z,14.83
2018-06-13T10:22:03.892Z,14.91
2018-06-13T10:23:03.797Z,14.90
2018-06-13T10:24:03.738Z,15.01
2018-06-13T10:25:03.620Z,15.18
2018-06-13T10:26:03.533Z,15.25
2018-06-13T10:27:03.442Z,15.16
2018-06-13T10:28:03.350Z,15.37
2018-06-13T10:29:03.296Z,15.60
2018-06-13T10:30:03.180Z,15.71
2018-06-13T10:31:03.088Z,15.78
2018-06-13T10:32:02.996Z,15.99
2018-06-13T10:33:02.907Z,16.08
2018-06-13T10:34:02.849Z,16.27
2018-06-13T10:35:02.730Z,16.26
2018-06-13T10:36:02.645Z,15.95
2018-06-13T10:37:02.554Z,15.92
2018-06-13T10:38:02.466Z,15.73
2018-06-13T10:39:02.410Z,15.71
2018-06-13T10:40:02.289Z,15.78
2018-06-13T10:41:02.203Z,15.67
2018-06-13T10:42:02.115Z,15.78
2018-06-13T10:43:02.029Z,15.74
2018-06-13T10:44:01.970Z,15.56
2018-06-13T10:45:01.853Z,15.56
2018-06-13T10:46:01.762Z,15.35
2018-06-13T10:47:01.674Z,15.16
2018-06-13T10:48:01.590Z,15.16
2018-06-13T10:49:01.531Z,15.18
2018-06-13T10:50:01.415Z,15.15
2018-06-13T10:51:01.333Z,15.05
2018-06-13T10:52:01.237Z,14.95
2018-06-13T10:53:01.257Z,14.93
2018-06-13T10:54:01.113Z,14.78
2018-06-13T10:55:00.972Z,14.91
2018-06-13T10:56:00.882Z,14.91
2018-06-13T10:57:00.796Z,14.78
2018-06-13T10:58:00.709Z,14.66
2018-06-13T10:59:00.621Z,14.59
2018-06-13T11:00:00.660Z,14.61
2018-06-13T11:01:00.443Z,14.74
2018-06-13T11:02:00.358Z,14.74
2018-06-13T11:03:00.275Z,14.56
2018-06-13T11:04:00.179Z,14.80
2018-06-13T11:05:00.124Z,14.69
2018-06-13T11:06:00.007Z,14.87
2018-06-13T11:07:00.006Z,14.90
2018-06-13T11:07:59.824Z,15.04
2018-06-13T11:08:59.742Z,15.16
2018-06-13T11:09:59.684Z,15.33
2018-06-13T11:10:59.561Z,15.35
2018-06-13T11:11:59.476Z,15.30
2018-06-13T11:12:59.387Z,15.37
2018-06-13T11:13:59.392Z,15.27
2018-06-13T11:14:59.250Z,15.22
2018-06-13T11:15:59.125Z,15.01
2018-06-13T11:16:59.038Z,15.11
2018-06-13T11:17:58.947Z,15.19
2018-06-13T11:18:58.860Z,15.37
2018-06-13T11:19:58.801Z,15.46
2018-06-13T11:20:58.771Z,15.89
2018-06-13T11:21:58.594Z,16.25
2018-06-13T11:22:58.503Z,16.27
2018-06-13T11:23:58.420Z,16.16
2018-06-13T11:24:58.359Z,15.93
2018-06-13T11:25:58.244Z,15.89
2018-06-13T11:26:58.152Z,15.84
2018-06-13T11:27:58.158Z,15.66
2018-06-13T11:28:57.979Z,15.86
2018-06-13T11:29:57.929Z,15.76
2018-06-13T11:30:57.803Z,15.98
2018-06-13T11:31:57.716Z,16.11
2018-06-13T11:32:57.627Z,16.33
2018-06-13T11:33:57.541Z,16.78
2018-06-13T11:34:57.577Z,16.96
2018-06-13T11:35:57.372Z,17.21
2018-06-13T11:36:57.278Z,17.40
2018-06-13T11:37:57.191Z,17.28
2018-06-13T11:38:57.104Z,17.22
2018-06-13T11:39:57.045Z,17.28
2018-06-13T11:40:56.929Z,17.43
2018-06-13T11:41:56.934Z,17.35
2018-06-13T11:42:56.756Z,17.45
2018-06-13T11:43:56.669Z,17.43
2018-06-13T11:44:56.615Z,17.49
2018-06-13T11:45:56.494Z,17.66
2018-06-13T11:46:56.424Z,17.76
2018-06-13T11:47:56.325Z,17.81
2018-06-13T11:48:56.235Z,17.80
2018-06-13T11:49:56.181Z,17.62
2018-06-13T11:50:56.065Z,17.32
2018-06-13T11:51:55.979Z,16.81
2018-06-13T11:52:55.891Z,16.51
2018-06-13T11:53:55.807Z,16.22
2018-06-13T11:54:55.748Z,16.06
2018-06-13T11:55:55.635Z,15.84
2018-06-13T11:56:55.548Z,15.71
2018-06-13T11:57:55.463Z,15.51
2018-06-13T11:58:55.374Z,15.46
2018-06-13T11:59:55.321Z,15.43
2018-06-13T12:00:55.202Z,15.44
2018-06-13T12:01:55.203Z,15.48
2018-06-13T12:02:55.029Z,15.62
2018-06-13T12:03:54.937Z,15.70
2018-06-13T12:04:54.884Z,15.64
2018-06-13T12:05:54.771Z,15.71
2018-06-13T12:06:54.678Z,15.78
2018-06-13T12:07:54.596Z,15.95
2018-06-13T12:08:54.505Z,15.86
2018-06-13T12:09:54.449Z,15.93
2018-06-13T12:10:54.386Z,16.08
2018-06-13T12:11:54.250Z,16.08
2018-06-13T12:12:54.158Z,16.18
2018-06-13T12:13:54.072Z,16.06
2018-06-13T12:14:54.015Z,16.07
2018-06-13T12:15:53.898Z,16.06
2018-06-13T12:16:53.814Z,16.07
2018-06-13T12:17:53.726Z,16.06
2018-06-13T12:18:53.633Z,16.08
2018-06-13T12:19:53.581Z,16.27
2018-06-13T12:20:53.462Z,16.51
2018-06-13T12:21:53.375Z,16.91
2018-06-13T12:22:53.290Z,16.92
2018-06-13T12:23:53.203Z,17.33
2018-06-13T12:24:53.148Z,17.98
2018-06-13T12:25:53.027Z,17.79
2018-06-13T12:26:52.941Z,18.07
2018-06-13T12:27:52.884Z,18.28
2018-06-13T12:28:52.768Z,18.19
2018-06-13T12:29:52.698Z,18.62
2018-06-13T12:30:52.640Z,18.54
2018-06-13T12:31:52.508Z,18.50
2018-06-13T12:32:52.424Z,18.11
2018-06-13T12:33:52.336Z,17.96
2018-06-13T12:34:52.250Z,17.57
2018-06-13T12:35:52.197Z,17.39
2018-06-13T12:36:52.081Z,17.28
2018-06-13T12:37:51.993Z,17.40
2018-06-13T12:38:51.910Z,17.71
2018-06-13T12:39:51.821Z,17.91
2018-06-13T12:40:51.766Z,17.92
2018-06-13T12:41:51.650Z,18.53
2018-06-13T12:42:51.562Z,18.56
2018-06-13T12:43:51.478Z,18.65
2018-06-13T12:44:51.395Z,18.86
2018-06-13T12:45:51.366Z,19.06
2018-06-13T12:46:51.227Z,19.50
2018-06-13T12:47:51.133Z,19.55
2018-06-13T12:48:51.053Z,19.21
2018-06-13T12:49:50.968Z,19.17
2018-06-13T12:50:50.986Z,18.94